sensor_id;sensor_type;location;lat;lon;timestamp;P1;durP1;ratioP1;P2;durP2;ratioP2
39788;SDS011;25478;42.626;23.320;2022-11-20T00:00:53;3.70;;;1.30;;
39788;SDS011;25478;42.626;23.320;2022-11-20T00:03:19;4.13;;;1.30;;
39788;SDS011;25478;42.626;23.320;2022-11-20T00:05:44;5.10;;;1.40;;
39788;SDS011;25478;42.626;23.320;2022-11-20T00:08:10;4.78;;;1.50;;
39788;SDS011;25478;42.626;23.320;2022-11-20T00:10:36;4.28;;;1.60;;
39788;SDS011;25478;42.626;23.320;2022-11-20T00:13:02;5.28;;;1.52;;
39788;SDS011;25478;42.626;23.320;2022-11-20T00:15:27;4.28;;;1.30;;
39788;SDS011;25478;42.626;23.320;2022-11-20T00:17:53;5.18;;;1.42;;
39788;SDS011;25478;42.626;23.320;2022-11-20T00:20:18;5.05;;;1.50;;
39788;SDS011;25478;42.626;23.320;2022-11-20T00:22:44;4.28;;;1.40;;
39788;SDS011;25478;42.626;23.320;2022-11-20T00:25:09;3.80;;;1.38;;
39788;SDS011;25478;42.626;23.320;2022-11-20T00:27:35;4.28;;;1.33;;
39788;SDS011;25478;42.626;23.320;2022-11-20T00:30:00;5.65;;;1.40;;
39788;SDS011;25478;42.626;23.320;2022-11-20T00:32:26;5.80;;;1.35;;
39788;SDS011;25478;42.626;23.320;2022-11-20T00:34:51;4.05;;;1.00;;
39788;SDS011;25478;42.626;23.320;2022-11-20T00:37:17;6.15;;;1.40;;
39788;SDS011;25478;42.626;23.320;2022-11-20T00:39:42;2.63;;;1.20;;
39788;SDS011;25478;42.626;23.320;2022-11-20T00:42:08;4.32;;;1.30;;
39788;SDS011;25478;42.626;23.320;2022-11-20T00:44:33;4.13;;;1.10;;
39788;SDS011;25478;42.626;23.320;2022-11-20T00:46:59;4.20;;;1.17;;
39788;SDS011;25478;42.626;23.320;2022-11-20T00:49:24;3.47;;;1.40;;
39788;SDS011;25478;42.626;23.320;2022-11-20T00:51:49;3.55;;;1.30;;
39788;SDS011;25478;42.626;23.320;2022-11-20T00:54:15;3.95;;;0.98;;
39788;SDS011;25478;42.626;23.320;2022-11-20T00:56:40;4.35;;;1.10;;
39788;SDS011;25478;42.626;23.320;2022-11-20T00:59:08;4.70;;;1.00;;
39788;SDS011;25478;42.626;23.320;2022-11-20T01:01:34;5.15;;;1.33;;
39788;SDS011;25478;42.626;23.320;2022-11-20T01:04:01;3.50;;;1.05;;
39788;SDS011;25478;42.626;23.320;2022-11-20T01:06:31;2.55;;;1.00;;
39788;SDS011;25478;42.626;23.320;2022-11-20T01:09:00;3.75;;;1.45;;
39788;SDS011;25478;42.626;23.320;2022-11-20T01:11:32;3.25;;;1.25;;
39788;SDS011;25478;42.626;23.320;2022-11-20T01:14:00;2.33;;;1.20;;
39788;SDS011;25478;42.626;23.320;2022-11-20T01:16:28;2.97;;;1.13;;
39788;SDS011;25478;42.626;23.320;2022-11-20T01:18:57;5.45;;;0.90;;
39788;SDS011;25478;42.626;23.320;2022-11-20T01:21:26;2.95;;;0.90;;
39788;SDS011;25478;42.626;23.320;2022-11-20T01:23:53;4.47;;;1.20;;
39788;SDS011;25478;42.626;23.320;2022-11-20T01:26:21;4.75;;;1.00;;
39788;SDS011;25478;42.626;23.320;2022-11-20T01:28:48;5.22;;;1.20;;
39788;SDS011;25478;42.626;23.320;2022-11-20T01:31:18;2.95;;;1.05;;
39788;SDS011;25478;42.626;23.320;2022-11-20T01:33:47;3.65;;;1.00;;
39788;SDS011;25478;42.626;23.320;2022-11-20T01:36:13;6.10;;;1.17;;
39788;SDS011;25478;42.626;23.320;2022-11-20T01:38:40;3.50;;;1.08;;
39788;SDS011;25478;42.626;23.320;2022-11-20T01:41:06;2.60;;;0.93;;
39788;SDS011;25478;42.626;23.320;2022-11-20T01:43:33;2.42;;;1.10;;
39788;SDS011;25478;42.626;23.320;2022-11-20T01:51:26;3.60;;;1.00;;
39788;SDS011;25478;42.626;23.320;2022-11-20T01:53:57;3.05;;;1.08;;
39788;SDS011;25478;42.626;23.320;2022-11-20T01:56:26;3.83;;;1.20;;
39788;SDS011;25478;42.626;23.320;2022-11-20T01:58:54;2.03;;;1.02;;
39788;SDS011;25478;42.626;23.320;2022-11-20T02:01:23;2.65;;;1.00;;
39788;SDS011;25478;42.626;23.320;2022-11-20T02:03:49;2.72;;;0.80;;
39788;SDS011;25478;42.626;23.320;2022-11-20T02:06:32;2.60;;;1.00;;
39788;SDS011;25478;42.626;23.320;2022-11-20T02:09:03;3.00;;;0.80;;
39788;SDS011;25478;42.626;23.320;2022-11-20T02:11:30;2.80;;;1.13;;
39788;SDS011;25478;42.626;23.320;2022-11-20T02:13:56;3.38;;;0.93;;
39788;SDS011;25478;42.626;23.320;2022-11-20T02:16:26;3.42;;;1.30;;
39788;SDS011;25478;42.626;23.320;2022-11-20T02:18:56;4.22;;;1.13;;
39788;SDS011;25478;42.626;23.320;2022-11-20T02:24:05;4.95;;;1.20;;
39788;SDS011;25478;42.626;23.320;2022-11-20T02:26:38;2.00;;;0.93;;
39788;SDS011;25478;42.626;23.320;2022-11-20T02:29:08;1.75;;;0.88;;
39788;SDS011;25478;42.626;23.320;2022-11-20T02:31:35;5.13;;;1.08;;
39788;SDS011;25478;42.626;23.320;2022-11-20T02:34:02;2.17;;;0.90;;
39788;SDS011;25478;42.626;23.320;2022-11-20T02:36:28;5.15;;;1.20;;
39788;SDS011;25478;42.626;23.320;2022-11-20T02:38:56;2.17;;;0.90;;
39788;SDS011;25478;42.626;23.320;2022-11-20T02:41:21;3.20;;;1.00;;
39788;SDS011;25478;42.626;23.320;2022-11-20T02:43:55;4.18;;;1.13;;
39788;SDS011;25478;42.626;23.320;2022-11-20T02:46:20;4.82;;;1.13;;
39788;SDS011;25478;42.626;23.320;2022-11-20T02:48:46;3.20;;;1.15;;
39788;SDS011;25478;42.626;23.320;2022-11-20T02:51:11;4.72;;;1.20;;
39788;SDS011;25478;42.626;23.320;2022-11-20T02:53:37;3.83;;;1.20;;
39788;SDS011;25478;42.626;23.320;2022-11-20T02:56:02;3.65;;;1.30;;
39788;SDS011;25478;42.626;23.320;2022-11-20T02:58:28;1.95;;;1.13;;
39788;SDS011;25478;42.626;23.320;2022-11-20T03:00:53;2.95;;;1.20;;
39788;SDS011;25478;42.626;23.320;2022-11-20T03:03:19;9.70;;;1.52;;
39788;SDS011;25478;42.626;23.320;2022-11-20T03:05:45;4.28;;;1.27;;
39788;SDS011;25478;42.626;23.320;2022-11-20T03:08:10;4.03;;;1.40;;
39788;SDS011;25478;42.626;23.320;2022-11-20T03:10:36;3.58;;;1.42;;
39788;SDS011;25478;42.626;23.320;2022-11-20T03:13:01;4.32;;;1.55;;
39788;SDS011;25478;42.626;23.320;2022-11-20T03:15:29;5.63;;;1.50;;
39788;SDS011;25478;42.626;23.320;2022-11-20T03:17:54;3.05;;;1.30;;
39788;SDS011;25478;42.626;23.320;2022-11-20T03:20:20;3.33;;;1.30;;
39788;SDS011;25478;42.626;23.320;2022-11-20T03:22:47;9.07;;;1.60;;
39788;SDS011;25478;42.626;23.320;2022-11-20T03:25:12;4.25;;;1.20;;
39788;SDS011;25478;42.626;23.320;2022-11-20T03:27:38;3.92;;;1.30;;
39788;SDS011;25478;42.626;23.320;2022-11-20T03:30:03;4.63;;;1.10;;
39788;SDS011;25478;42.626;23.320;2022-11-20T03:32:30;3.30;;;1.20;;
39788;SDS011;25478;42.626;23.320;2022-11-20T03:34:56;1.75;;;1.00;;
39788;SDS011;25478;42.626;23.320;2022-11-20T03:37:21;2.78;;;1.10;;
39788;SDS011;25478;42.626;23.320;2022-11-20T03:39:47;2.08;;;1.00;;
39788;SDS011;25478;42.626;23.320;2022-11-20T03:42:13;3.80;;;1.20;;
39788;SDS011;25478;42.626;23.320;2022-11-20T03:44:57;4.78;;;1.33;;
39788;SDS011;25478;42.626;23.320;2022-11-20T03:47:22;5.80;;;1.17;;
39788;SDS011;25478;42.626;23.320;2022-11-20T03:49:48;3.00;;;1.08;;
39788;SDS011;25478;42.626;23.320;2022-11-20T03:52:13;3.63;;;1.00;;
39788;SDS011;25478;42.626;23.320;2022-11-20T03:54:39;3.30;;;1.23;;
39788;SDS011;25478;42.626;23.320;2022-11-20T03:57:04;2.67;;;1.08;;
39788;SDS011;25478;42.626;23.320;2022-11-20T03:59:30;6.25;;;1.20;;
39788;SDS011;25478;42.626;23.320;2022-11-20T04:01:55;4.80;;;1.15;;
39788;SDS011;25478;42.626;23.320;2022-11-20T04:04:21;3.58;;;1.00;;
39788;SDS011;25478;42.626;23.320;2022-11-20T04:06:46;3.63;;;1.20;;
39788;SDS011;25478;42.626;23.320;2022-11-20T04:09:12;4.07;;;1.00;;
39788;SDS011;25478;42.626;23.320;2022-11-20T04:11:39;3.22;;;1.23;;
39788;SDS011;25478;42.626;23.320;2022-11-20T04:14:05;2.75;;;1.17;;
39788;SDS011;25478;42.626;23.320;2022-11-20T04:16:34;4.80;;;1.20;;
39788;SDS011;25478;42.626;23.320;2022-11-20T04:19:02;3.47;;;1.20;;
39788;SDS011;25478;42.626;23.320;2022-11-20T04:21:30;3.28;;;1.08;;
39788;SDS011;25478;42.626;23.320;2022-11-20T04:23:56;3.55;;;1.20;;
39788;SDS011;25478;42.626;23.320;2022-11-20T04:26:22;2.42;;;0.95;;
39788;SDS011;25478;42.626;23.320;2022-11-20T04:28:50;2.60;;;0.93;;
39788;SDS011;25478;42.626;23.320;2022-11-20T04:31:20;2.88;;;1.10;;
39788;SDS011;25478;42.626;23.320;2022-11-20T04:33:47;3.00;;;1.00;;
39788;SDS011;25478;42.626;23.320;2022-11-20T04:36:13;2.33;;;1.17;;
39788;SDS011;25478;42.626;23.320;2022-11-20T04:38:41;4.72;;;1.40;;
39788;SDS011;25478;42.626;23.320;2022-11-20T04:41:08;5.40;;;1.50;;
39788;SDS011;25478;42.626;23.320;2022-11-20T04:43:38;4.18;;;1.30;;
39788;SDS011;25478;42.626;23.320;2022-11-20T04:46:04;4.05;;;1.40;;
39788;SDS011;25478;42.626;23.320;2022-11-20T04:48:30;4.03;;;1.58;;
39788;SDS011;25478;42.626;23.320;2022-11-20T04:50:55;3.08;;;1.02;;
39788;SDS011;25478;42.626;23.320;2022-11-20T04:53:21;4.10;;;1.33;;
39788;SDS011;25478;42.626;23.320;2022-11-20T04:55:47;3.67;;;1.00;;
39788;SDS011;25478;42.626;23.320;2022-11-20T04:58:13;3.28;;;1.27;;
39788;SDS011;25478;42.626;23.320;2022-11-20T05:00:39;5.90;;;1.20;;
39788;SDS011;25478;42.626;23.320;2022-11-20T05:03:05;4.70;;;1.05;;
39788;SDS011;25478;42.626;23.320;2022-11-20T05:05:31;3.75;;;1.15;;
39788;SDS011;25478;42.626;23.320;2022-11-20T05:07:58;4.20;;;1.27;;
39788;SDS011;25478;42.626;23.320;2022-11-20T05:10:24;3.05;;;1.13;;
39788;SDS011;25478;42.626;23.320;2022-11-20T05:12:51;3.00;;;1.00;;
39788;SDS011;25478;42.626;23.320;2022-11-20T05:15:16;3.45;;;1.15;;
39788;SDS011;25478;42.626;23.320;2022-11-20T05:17:46;4.00;;;1.00;;
39788;SDS011;25478;42.626;23.320;2022-11-20T05:20:13;4.53;;;1.00;;
39788;SDS011;25478;42.626;23.320;2022-11-20T05:22:38;3.13;;;0.82;;
39788;SDS011;25478;42.626;23.320;2022-11-20T05:25:04;4.15;;;1.23;;
39788;SDS011;25478;42.626;23.320;2022-11-20T05:27:30;4.07;;;1.17;;
39788;SDS011;25478;42.626;23.320;2022-11-20T05:29:55;2.50;;;1.00;;
39788;SDS011;25478;42.626;23.320;2022-11-20T05:32:21;4.65;;;1.15;;
39788;SDS011;25478;42.626;23.320;2022-11-20T05:34:50;4.60;;;1.52;;
39788;SDS011;25478;42.626;23.320;2022-11-20T05:37:16;4.30;;;1.20;;
39788;SDS011;25478;42.626;23.320;2022-11-20T05:39:42;3.53;;;0.90;;
39788;SDS011;25478;42.626;23.320;2022-11-20T05:42:07;3.13;;;0.90;;
39788;SDS011;25478;42.626;23.320;2022-11-20T05:44:51;2.05;;;1.08;;
39788;SDS011;25478;42.626;23.320;2022-11-20T05:47:17;4.60;;;1.35;;
39788;SDS011;25478;42.626;23.320;2022-11-20T05:49:42;2.83;;;1.30;;
39788;SDS011;25478;42.626;23.320;2022-11-20T05:52:08;3.63;;;1.27;;
39788;SDS011;25478;42.626;23.320;2022-11-20T05:54:33;4.20;;;1.13;;
39788;SDS011;25478;42.626;23.320;2022-11-20T05:56:59;3.05;;;1.00;;
39788;SDS011;25478;42.626;23.320;2022-11-20T05:59:24;2.65;;;1.42;;
39788;SDS011;25478;42.626;23.320;2022-11-20T06:01:50;2.80;;;1.23;;
39788;SDS011;25478;42.626;23.320;2022-11-20T06:04:15;8.30;;;1.35;;
39788;SDS011;25478;42.626;23.320;2022-11-20T06:06:41;2.75;;;1.30;;
39788;SDS011;25478;42.626;23.320;2022-11-20T06:09:06;2.25;;;1.13;;
39788;SDS011;25478;42.626;23.320;2022-11-20T06:11:32;5.30;;;1.48;;
39788;SDS011;25478;42.626;23.320;2022-11-20T06:13:57;4.85;;;1.13;;
39788;SDS011;25478;42.626;23.320;2022-11-20T06:16:23;5.68;;;1.60;;
39788;SDS011;25478;42.626;23.320;2022-11-20T06:18:48;5.68;;;1.35;;
39788;SDS011;25478;42.626;23.320;2022-11-20T06:21:15;3.65;;;1.50;;
39788;SDS011;25478;42.626;23.320;2022-11-20T06:23:43;5.40;;;1.13;;
39788;SDS011;25478;42.626;23.320;2022-11-20T06:26:10;3.78;;;1.70;;
39788;SDS011;25478;42.626;23.320;2022-11-20T06:28:37;6.63;;;1.30;;
39788;SDS011;25478;42.626;23.320;2022-11-20T06:31:04;4.20;;;1.05;;
39788;SDS011;25478;42.626;23.320;2022-11-20T06:33:30;3.55;;;1.00;;
39788;SDS011;25478;42.626;23.320;2022-11-20T06:35:57;3.00;;;0.88;;
39788;SDS011;25478;42.626;23.320;2022-11-20T06:38:24;7.70;;;1.15;;
39788;SDS011;25478;42.626;23.320;2022-11-20T06:40:50;2.08;;;0.65;;
39788;SDS011;25478;42.626;23.320;2022-11-20T06:43:16;3.75;;;0.98;;
39788;SDS011;25478;42.626;23.320;2022-11-20T06:45:41;3.78;;;1.08;;
39788;SDS011;25478;42.626;23.320;2022-11-20T06:48:07;5.18;;;1.13;;
39788;SDS011;25478;42.626;23.320;2022-11-20T06:50:33;3.15;;;0.82;;
39788;SDS011;25478;42.626;23.320;2022-11-20T06:53:02;3.30;;;0.80;;
39788;SDS011;25478;42.626;23.320;2022-11-20T06:55:28;3.33;;;0.80;;
39788;SDS011;25478;42.626;23.320;2022-11-20T06:57:54;4.78;;;1.00;;
39788;SDS011;25478;42.626;23.320;2022-11-20T07:00:20;5.18;;;0.90;;
39788;SDS011;25478;42.626;23.320;2022-11-20T07:02:45;2.28;;;0.80;;
39788;SDS011;25478;42.626;23.320;2022-11-20T07:05:11;3.47;;;1.02;;
39788;SDS011;25478;42.626;23.320;2022-11-20T07:07:36;3.83;;;0.82;;
39788;SDS011;25478;42.626;23.320;2022-11-20T07:10:02;5.10;;;1.30;;
39788;SDS011;25478;42.626;23.320;2022-11-20T07:12:28;4.32;;;1.02;;
39788;SDS011;25478;42.626;23.320;2022-11-20T07:14:53;3.65;;;0.90;;
39788;SDS011;25478;42.626;23.320;2022-11-20T07:17:18;4.90;;;1.10;;
39788;SDS011;25478;42.626;23.320;2022-11-20T07:19:44;5.93;;;1.33;;
39788;SDS011;25478;42.626;23.320;2022-11-20T07:22:09;4.03;;;1.08;;
39788;SDS011;25478;42.626;23.320;2022-11-20T07:24:35;3.60;;;0.93;;
39788;SDS011;25478;42.626;23.320;2022-11-20T07:27:00;4.55;;;1.10;;
39788;SDS011;25478;42.626;23.320;2022-11-20T07:29:26;4.22;;;1.30;;
39788;SDS011;25478;42.626;23.320;2022-11-20T07:31:51;3.05;;;0.90;;
39788;SDS011;25478;42.626;23.320;2022-11-20T07:34:17;4.10;;;1.20;;
39788;SDS011;25478;42.626;23.320;2022-11-20T07:36:42;4.85;;;1.38;;
39788;SDS011;25478;42.626;23.320;2022-11-20T07:39:08;4.15;;;1.20;;
39788;SDS011;25478;42.626;23.320;2022-11-20T07:41:33;8.18;;;1.80;;
39788;SDS011;25478;42.626;23.320;2022-11-20T07:43:58;7.28;;;1.40;;
39788;SDS011;25478;42.626;23.320;2022-11-20T07:46:24;3.63;;;1.20;;
39788;SDS011;25478;42.626;23.320;2022-11-20T07:48:49;4.68;;;1.52;;
39788;SDS011;25478;42.626;23.320;2022-11-20T07:51:15;5.88;;;1.42;;
39788;SDS011;25478;42.626;23.320;2022-11-20T07:53:40;5.95;;;1.35;;
39788;SDS011;25478;42.626;23.320;2022-11-20T07:56:06;4.15;;;1.40;;
39788;SDS011;25478;42.626;23.320;2022-11-20T07:58:32;4.65;;;1.30;;
39788;SDS011;25478;42.626;23.320;2022-11-20T08:01:05;4.70;;;1.55;;
39788;SDS011;25478;42.626;23.320;2022-11-20T08:03:32;10.15;;;1.45;;
39788;SDS011;25478;42.626;23.320;2022-11-20T08:05:58;4.47;;;1.38;;
39788;SDS011;25478;42.626;23.320;2022-11-20T08:08:25;4.45;;;1.30;;
39788;SDS011;25478;42.626;23.320;2022-11-20T08:10:51;6.35;;;1.70;;
39788;SDS011;25478;42.626;23.320;2022-11-20T08:13:16;5.60;;;1.77;;
39788;SDS011;25478;42.626;23.320;2022-11-20T08:18:26;4.50;;;1.50;;
39788;SDS011;25478;42.626;23.320;2022-11-20T08:20:52;4.97;;;1.48;;
39788;SDS011;25478;42.626;23.320;2022-11-20T08:23:17;5.25;;;1.30;;
39788;SDS011;25478;42.626;23.320;2022-11-20T08:25:43;4.00;;;1.08;;
39788;SDS011;25478;42.626;23.320;2022-11-20T08:28:09;6.30;;;1.55;;
39788;SDS011;25478;42.626;23.320;2022-11-20T08:30:35;6.07;;;1.50;;
39788;SDS011;25478;42.626;23.320;2022-11-20T08:33:02;6.90;;;1.50;;
39788;SDS011;25478;42.626;23.320;2022-11-20T08:35:32;6.65;;;1.40;;
39788;SDS011;25478;42.626;23.320;2022-11-20T08:38:00;6.80;;;1.50;;
39788;SDS011;25478;42.626;23.320;2022-11-20T08:40:25;6.05;;;1.40;;
39788;SDS011;25478;42.626;23.320;2022-11-20T08:42:51;6.90;;;1.30;;
39788;SDS011;25478;42.626;23.320;2022-11-20T08:45:17;6.15;;;1.58;;
39788;SDS011;25478;42.626;23.320;2022-11-20T08:47:43;6.97;;;1.50;;
39788;SDS011;25478;42.626;23.320;2022-11-20T08:50:10;5.20;;;1.50;;
39788;SDS011;25478;42.626;23.320;2022-11-20T08:52:37;4.95;;;1.73;;
39788;SDS011;25478;42.626;23.320;2022-11-20T08:55:03;5.95;;;2.10;;
39788;SDS011;25478;42.626;23.320;2022-11-20T08:57:33;5.60;;;2.03;;
39788;SDS011;25478;42.626;23.320;2022-11-20T08:59:59;8.13;;;2.92;;
39788;SDS011;25478;42.626;23.320;2022-11-20T09:02:24;6.30;;;2.80;;
39788;SDS011;25478;42.626;23.320;2022-11-20T09:04:50;6.72;;;2.80;;
39788;SDS011;25478;42.626;23.320;2022-11-20T09:07:16;5.95;;;3.80;;
39788;SDS011;25478;42.626;23.320;2022-11-20T09:09:41;9.88;;;3.92;;
39788;SDS011;25478;42.626;23.320;2022-11-20T09:12:07;7.15;;;3.88;;
39788;SDS011;25478;42.626;23.320;2022-11-20T09:14:32;6.15;;;2.92;;
39788;SDS011;25478;42.626;23.320;2022-11-20T09:16:58;4.50;;;1.83;;
39788;SDS011;25478;42.626;23.320;2022-11-20T09:19:24;4.10;;;1.90;;
39788;SDS011;25478;42.626;23.320;2022-11-20T09:21:50;4.28;;;1.67;;
39788;SDS011;25478;42.626;23.320;2022-11-20T09:24:16;2.88;;;1.45;;
39788;SDS011;25478;42.626;23.320;2022-11-20T09:26:42;1.02;;;0.70;;
39788;SDS011;25478;42.626;23.320;2022-11-20T09:29:07;1.95;;;0.90;;
39788;SDS011;25478;42.626;23.320;2022-11-20T09:31:33;4.45;;;1.13;;
39788;SDS011;25478;42.626;23.320;2022-11-20T09:33:58;2.92;;;1.48;;
39788;SDS011;25478;42.626;23.320;2022-11-20T09:36:24;4.82;;;2.00;;
39788;SDS011;25478;42.626;23.320;2022-11-20T09:38:49;4.78;;;2.42;;
39788;SDS011;25478;42.626;23.320;2022-11-20T09:55:15;4.75;;;2.20;;
39788;SDS011;25478;42.626;23.320;2022-11-20T09:57:42;6.45;;;2.28;;
39788;SDS011;25478;42.626;23.320;2022-11-20T10:00:12;7.07;;;3.05;;
39788;SDS011;25478;42.626;23.320;2022-11-20T10:02:43;8.45;;;3.63;;
39788;SDS011;25478;42.626;23.320;2022-11-20T10:05:44;10.48;;;4.13;;
39788;SDS011;25478;42.626;23.320;2022-11-20T10:08:25;7.13;;;3.80;;
39788;SDS011;25478;42.626;23.320;2022-11-20T10:11:01;7.40;;;3.72;;
39788;SDS011;25478;42.626;23.320;2022-11-20T10:13:39;10.65;;;4.40;;
39788;SDS011;25478;42.626;23.320;2022-11-20T10:21:30;6.53;;;4.30;;
39788;SDS011;25478;42.626;23.320;2022-11-20T10:29:21;10.80;;;4.03;;
39788;SDS011;25478;42.626;23.320;2022-11-20T10:32:07;9.15;;;4.03;;
39788;SDS011;25478;42.626;23.320;2022-11-20T10:34:50;8.23;;;3.15;;
39788;SDS011;25478;42.626;23.320;2022-11-20T10:37:30;7.22;;;3.13;;
39788;SDS011;25478;42.626;23.320;2022-11-20T10:42:43;9.65;;;3.72;;
39788;SDS011;25478;42.626;23.320;2022-11-20T10:47:47;11.15;;;4.78;;
39788;SDS011;25478;42.626;23.320;2022-11-20T10:50:14;7.53;;;4.32;;
39788;SDS011;25478;42.626;23.320;2022-11-20T10:55:54;10.20;;;3.85;;
39788;SDS011;25478;42.626;23.320;2022-11-20T10:58:39;9.30;;;4.13;;
39788;SDS011;25478;42.626;23.320;2022-11-20T11:01:14;11.52;;;4.68;;
39788;SDS011;25478;42.626;23.320;2022-11-20T11:03:43;7.10;;;4.32;;
39788;SDS011;25478;42.626;23.320;2022-11-20T11:06:15;10.63;;;4.85;;
39788;SDS011;25478;42.626;23.320;2022-11-20T11:08:49;11.93;;;4.70;;
39788;SDS011;25478;42.626;23.320;2022-11-20T11:11:22;9.38;;;5.03;;
39788;SDS011;25478;42.626;23.320;2022-11-20T11:13:49;10.93;;;5.93;;
39788;SDS011;25478;42.626;23.320;2022-11-20T11:16:22;9.07;;;2.75;;
39788;SDS011;25478;42.626;23.320;2022-11-20T11:18:49;6.63;;;3.25;;
39788;SDS011;25478;42.626;23.320;2022-11-20T11:21:25;3.63;;;1.37;;
39788;SDS011;25478;42.626;23.320;2022-11-20T11:24:02;3.80;;;1.17;;
39788;SDS011;25478;42.626;23.320;2022-11-20T11:26:29;4.63;;;1.70;;
39788;SDS011;25478;42.626;23.320;2022-11-20T11:28:56;6.60;;;2.40;;
39788;SDS011;25478;42.626;23.320;2022-11-20T11:31:27;4.33;;;1.60;;
39788;SDS011;25478;42.626;23.320;2022-11-20T11:36:38;3.07;;;1.20;;
39788;SDS011;25478;42.626;23.320;2022-11-20T11:39:05;3.83;;;1.00;;
39788;SDS011;25478;42.626;23.320;2022-11-20T11:41:36;2.07;;;0.80;;
39788;SDS011;25478;42.626;23.320;2022-11-20T11:44:20;2.37;;;1.10;;
39788;SDS011;25478;42.626;23.320;2022-11-20T11:47:26;2.47;;;1.00;;
39788;SDS011;25478;42.626;23.320;2022-11-20T11:50:08;4.30;;;1.00;;
39788;SDS011;25478;42.626;23.320;2022-11-20T11:52:41;1.63;;;0.70;;
39788;SDS011;25478;42.626;23.320;2022-11-20T11:58:27;4.40;;;0.80;;
39788;SDS011;25478;42.626;23.320;2022-11-20T12:01:21;3.57;;;1.03;;
39788;SDS011;25478;42.626;23.320;2022-11-20T12:04:05;2.07;;;0.80;;
39788;SDS011;25478;42.626;23.320;2022-11-20T12:06:35;4.10;;;0.80;;
39788;SDS011;25478;42.626;23.320;2022-11-20T12:09:05;3.67;;;0.83;;
39788;SDS011;25478;42.626;23.320;2022-11-20T12:11:49;1.97;;;0.70;;
39788;SDS011;25478;42.626;23.320;2022-11-20T12:17:08;1.47;;;0.60;;
39788;SDS011;25478;42.626;23.320;2022-11-20T12:19:37;3.70;;;0.80;;
39788;SDS011;25478;42.626;23.320;2022-11-20T12:22:10;2.67;;;0.87;;
39788;SDS011;25478;42.626;23.320;2022-11-20T12:24:55;1.47;;;0.60;;
39788;SDS011;25478;42.626;23.320;2022-11-20T12:46:42;6.07;;;1.30;;
39788;SDS011;25478;42.626;23.320;2022-11-20T12:52:07;4.87;;;1.17;;
39788;SDS011;25478;42.626;23.320;2022-11-20T12:55:13;5.03;;;1.50;;
39788;SDS011;25478;42.626;23.320;2022-11-20T13:00:20;4.60;;;1.10;;
39788;SDS011;25478;42.626;23.320;2022-11-20T13:05:34;4.33;;;1.50;;
39788;SDS011;25478;42.626;23.320;2022-11-20T13:08:14;5.97;;;1.60;;
39788;SDS011;25478;42.626;23.320;2022-11-20T13:11:13;6.37;;;2.13;;
39788;SDS011;25478;42.626;23.320;2022-11-20T13:14:03;7.27;;;2.50;;
39788;SDS011;25478;42.626;23.320;2022-11-20T13:19:11;7.50;;;2.60;;
39788;SDS011;25478;42.626;23.320;2022-11-20T13:21:40;7.70;;;1.93;;
39788;SDS011;25478;42.626;23.320;2022-11-20T13:24:19;6.53;;;2.10;;
39788;SDS011;25478;42.626;23.320;2022-11-20T13:26:45;11.03;;;3.83;;
39788;SDS011;25478;42.626;23.320;2022-11-20T13:29:11;9.33;;;3.57;;
39788;SDS011;25478;42.626;23.320;2022-11-20T13:31:43;7.53;;;3.40;;
39788;SDS011;25478;42.626;23.320;2022-11-20T13:34:12;5.40;;;2.30;;
39788;SDS011;25478;42.626;23.320;2022-11-20T13:36:50;6.67;;;2.47;;
39788;SDS011;25478;42.626;23.320;2022-11-20T13:39:35;7.37;;;2.80;;
39788;SDS011;25478;42.626;23.320;2022-11-20T13:42:54;9.70;;;3.20;;
39788;SDS011;25478;42.626;23.320;2022-11-20T13:45:00;7.57;;;2.47;;
39788;SDS011;25478;42.626;23.320;2022-11-20T13:47:27;7.53;;;2.80;;
39788;SDS011;25478;42.626;23.320;2022-11-20T13:49:55;6.53;;;2.97;;
39788;SDS011;25478;42.626;23.320;2022-11-20T13:55:23;8.95;;;4.72;;
39788;SDS011;25478;42.626;23.320;2022-11-20T14:01:06;12.90;;;7.17;;
39788;SDS011;25478;42.626;23.320;2022-11-20T14:03:35;18.88;;;10.05;;
39788;SDS011;25478;42.626;23.320;2022-11-20T14:06:02;17.83;;;10.37;;
39788;SDS011;25478;42.626;23.320;2022-11-20T14:08:36;18.23;;;8.70;;
39788;SDS011;25478;42.626;23.320;2022-11-20T14:11:14;19.17;;;8.80;;
39788;SDS011;25478;42.626;23.320;2022-11-20T14:13:52;19.43;;;9.37;;
39788;SDS011;25478;42.626;23.320;2022-11-20T14:16:20;17.10;;;8.70;;
39788;SDS011;25478;42.626;23.320;2022-11-20T14:18:46;18.10;;;9.57;;
39788;SDS011;25478;42.626;23.320;2022-11-20T14:21:20;28.50;;;14.07;;
39788;SDS011;25478;42.626;23.320;2022-11-20T14:23:54;68.87;;;31.67;;
39788;SDS011;25478;42.626;23.320;2022-11-20T14:26:28;92.77;;;42.37;;
39788;SDS011;25478;42.626;23.320;2022-11-20T14:28:54;62.00;;;31.27;;
39788;SDS011;25478;42.626;23.320;2022-11-20T14:31:23;66.37;;;32.17;;
39788;SDS011;25478;42.626;23.320;2022-11-20T14:33:52;47.97;;;26.93;;
39788;SDS011;25478;42.626;23.320;2022-11-20T14:36:20;41.63;;;25.07;;
39788;SDS011;25478;42.626;23.320;2022-11-20T14:38:48;37.00;;;24.67;;
39788;SDS011;25478;42.626;23.320;2022-11-20T14:41:18;38.13;;;23.70;;
39788;SDS011;25478;42.626;23.320;2022-11-20T14:44:05;27.55;;;16.08;;
39788;SDS011;25478;42.626;23.320;2022-11-20T14:46:33;44.33;;;27.77;;
39788;SDS011;25478;42.626;23.320;2022-11-20T14:49:00;42.90;;;24.20;;
39788;SDS011;25478;42.626;23.320;2022-11-20T14:51:28;21.87;;;12.00;;
39788;SDS011;25478;42.626;23.320;2022-11-20T14:53:54;10.80;;;5.53;;
39788;SDS011;25478;42.626;23.320;2022-11-20T14:56:21;9.00;;;5.13;;
39788;SDS011;25478;42.626;23.320;2022-11-20T14:58:55;8.50;;;4.30;;
39788;SDS011;25478;42.626;23.320;2022-11-20T15:01:27;14.83;;;7.07;;
39788;SDS011;25478;42.626;23.320;2022-11-20T15:03:59;11.07;;;5.60;;
39788;SDS011;25478;42.626;23.320;2022-11-20T15:06:37;7.13;;;3.63;;
39788;SDS011;25478;42.626;23.320;2022-11-20T15:09:14;10.47;;;5.77;;
39788;SDS011;25478;42.626;23.320;2022-11-20T15:11:40;14.20;;;7.03;;
39788;SDS011;25478;42.626;23.320;2022-11-20T15:14:20;12.70;;;6.70;;
39788;SDS011;25478;42.626;23.320;2022-11-20T15:16:46;12.00;;;6.13;;
39788;SDS011;25478;42.626;23.320;2022-11-20T15:19:45;11.50;;;6.33;;
39788;SDS011;25478;42.626;23.320;2022-11-20T15:22:04;13.10;;;6.10;;
39788;SDS011;25478;42.626;23.320;2022-11-20T15:24:37;13.23;;;5.97;;
39788;SDS011;25478;42.626;23.320;2022-11-20T15:27:03;11.87;;;6.63;;
39788;SDS011;25478;42.626;23.320;2022-11-20T15:29:28;15.30;;;7.90;;
39788;SDS011;25478;42.626;23.320;2022-11-20T15:31:54;12.47;;;9.93;;
39788;SDS011;25478;42.626;23.320;2022-11-20T15:34:19;17.53;;;10.87;;
39788;SDS011;25478;42.626;23.320;2022-11-20T15:36:45;15.30;;;9.40;;
39788;SDS011;25478;42.626;23.320;2022-11-20T15:39:10;16.03;;;10.20;;
39788;SDS011;25478;42.626;23.320;2022-11-20T15:41:37;12.30;;;8.43;;
39788;SDS011;25478;42.626;23.320;2022-11-20T15:44:03;14.10;;;10.07;;
39788;SDS011;25478;42.626;23.320;2022-11-20T15:46:33;10.60;;;4.90;;
39788;SDS011;25478;42.626;23.320;2022-11-20T15:49:03;7.07;;;3.70;;
39788;SDS011;25478;42.626;23.320;2022-11-20T15:51:48;7.87;;;4.57;;
39788;SDS011;25478;42.626;23.320;2022-11-20T15:54:19;5.53;;;2.50;;
39788;SDS011;25478;42.626;23.320;2022-11-20T15:56:46;5.67;;;2.40;;
39788;SDS011;25478;42.626;23.320;2022-11-20T15:59:13;5.43;;;2.40;;
39788;SDS011;25478;42.626;23.320;2022-11-20T16:01:42;6.70;;;2.43;;
39788;SDS011;25478;42.626;23.320;2022-11-20T16:04:11;10.37;;;5.20;;
39788;SDS011;25478;42.626;23.320;2022-11-20T16:06:37;7.00;;;4.20;;
39788;SDS011;25478;42.626;23.320;2022-11-20T16:09:03;6.90;;;3.60;;